createdAt,value
2022-12-31T00:02:20.721Z,12.30
2022-12-31T00:04:47.645Z,12.30
2022-12-31T00:07:14.373Z,12.20
2022-12-31T00:09:41.268Z,12.20
2022-12-31T00:12:08.052Z,12.20
2022-12-31T00:14:34.831Z,12.20
2022-12-31T00:17:01.769Z,12.20
2022-12-31T00:19:28.639Z,12.20
2022-12-31T00:21:55.455Z,12.10
2022-12-31T00:24:22.279Z,12.10
2022-12-31T00:26:49.029Z,12.20
2022-12-31T00:29:15.827Z,12.10
2022-12-31T00:31:42.769Z,12.10
2022-12-31T00:34:10.619Z,12.10
2022-12-31T00:36:38.648Z,12.10
2022-12-31T00:39:06.611Z,12.10
2022-12-31T00:41:33.453Z,12.10
2022-12-31T00:44:00.277Z,12.10
2022-12-31T00:46:27.262Z,12.10
2022-12-31T00:48:54.102Z,12.10
2022-12-31T00:51:22.346Z,12.10
2022-12-31T00:53:49.170Z,12.10
2022-12-31T00:56:21.053Z,12.10
2022-12-31T00:58:48.021Z,12.00
2022-12-31T01:01:19.773Z,12.00
2022-12-31T01:03:47.641Z,12.00
2022-12-31T01:06:14.562Z,11.90
2022-12-31T01:08:41.416Z,11.90
2022-12-31T01:11:22.184Z,11.80
2022-12-31T01:13:53.349Z,11.80
2022-12-31T01:16:26.062Z,11.80
2022-12-31T01:18:52.849Z,11.70
2022-12-31T01:21:20.072Z,11.70
2022-12-31T01:23:46.918Z,11.70
2022-12-31T01:26:14.757Z,11.70
2022-12-31T01:28:41.678Z,11.70
2022-12-31T01:31:10.471Z,11.70
2022-12-31T01:33:37.524Z,11.60
2022-12-31T01:36:09.750Z,11.60
2022-12-31T01:38:36.593Z,11.60
2022-12-31T01:41:03.772Z,11.50
2022-12-31T01:43:48.782Z,11.50
2022-12-31T01:46:42.484Z,11.40
2022-12-31T01:49:37.258Z,11.40
2022-12-31T01:52:28.164Z,11.40
2022-12-31T01:55:12.369Z,11.40
2022-12-31T01:57:39.243Z,11.40
2022-12-31T02:00:06.792Z,11.40
2022-12-31T02:02:33.782Z,11.40
2022-12-31T02:05:00.995Z,11.40
2022-12-31T02:07:27.864Z,11.40
2022-12-31T02:09:54.759Z,11.40
2022-12-31T02:12:21.542Z,11.40
2022-12-31T02:14:50.495Z,11.50
2022-12-31T02:17:35.579Z,11.50
2022-12-31T02:20:05.505Z,11.50
2022-12-31T02:22:35.450Z,11.50
2022-12-31T02:25:39.321Z,11.50
2022-12-31T02:28:50.120Z,11.60
2022-12-31T02:31:27.038Z,11.60
2022-12-31T02:34:02.021Z,11.60
2022-12-31T02:36:32.992Z,11.60
2022-12-31T02:38:59.743Z,11.60
2022-12-31T02:41:45.084Z,11.60
2022-12-31T02:44:27.366Z,11.60
2022-12-31T02:47:09.257Z,11.70
2022-12-31T02:50:11.549Z,11.70
2022-12-31T02:52:44.515Z,11.70
2022-12-31T02:55:19.214Z,11.70
2022-12-31T02:57:56.946Z,11.70
2022-12-31T03:00:42.210Z,11.70
2022-12-31T03:03:09.094Z,11.70
2022-12-31T03:05:39.413Z,11.70
2022-12-31T03:08:06.269Z,11.70
2022-12-31T03:10:33.160Z,11.70
2022-12-31T03:13:00.083Z,11.70
2022-12-31T03:15:31.598Z,11.80
2022-12-31T03:18:09.900Z,11.80
2022-12-31T03:20:59.691Z,11.80
2022-12-31T03:23:34.387Z,11.80
2022-12-31T03:26:01.248Z,11.80
2022-12-31T03:28:29.522Z,11.80
2022-12-31T03:30:58.836Z,11.80
2022-12-31T03:33:25.841Z,11.80
2022-12-31T03:35:52.981Z,11.80
2022-12-31T03:38:19.960Z,11.80
2022-12-31T03:40:48.877Z,11.70
2022-12-31T03:43:15.724Z,11.70
2022-12-31T03:45:42.671Z,11.70
2022-12-31T03:48:09.879Z,11.70
2022-12-31T03:50:36.873Z,11.70
2022-12-31T03:53:03.616Z,11.70
2022-12-31T03:55:30.445Z,11.70
2022-12-31T03:57:57.384Z,11.70
2022-12-31T04:00:24.207Z,11.70
2022-12-31T04:02:51.100Z,11.80
2022-12-31T04:05:18.193Z,11.80
2022-12-31T04:07:45.041Z,11.80
2022-12-31T04:10:12.803Z,11.80
2022-12-31T04:12:39.716Z,11.80
2022-12-31T04:15:07.380Z,11.80
2022-12-31T04:17:34.356Z,11.80
2022-12-31T04:20:02.880Z,11.80
2022-12-31T04:22:29.696Z,11.90
2022-12-31T04:24:56.441Z,11.90
2022-12-31T04:27:23.192Z,11.90
2022-12-31T04:29:50.035Z,12.00
2022-12-31T04:32:16.896Z,12.00
2022-12-31T04:34:43.765Z,12.10
2022-12-31T04:37:10.588Z,12.10
2022-12-31T04:39:37.377Z,12.20
2022-12-31T04:42:04.258Z,12.20
2022-12-31T04:44:31.702Z,12.30
2022-12-31T04:46:58.495Z,12.40
2022-12-31T04:49:25.256Z,12.40
2022-12-31T04:51:51.992Z,12.40
2022-12-31T04:54:18.836Z,12.50
2022-12-31T04:56:49.214Z,12.50
2022-12-31T04:59:16.032Z,12.60
2022-12-31T05:01:42.943Z,12.70
2022-12-31T05:04:09.801Z,12.70
2022-12-31T05:06:36.725Z,12.70
2022-12-31T05:09:03.628Z,12.80
2022-12-31T05:11:30.437Z,12.90
2022-12-31T05:13:57.197Z,12.90
2022-12-31T05:16:24.073Z,13.00
2022-12-31T05:18:50.887Z,13.10
2022-12-31T05:21:20.177Z,13.20
2022-12-31T05:23:47.314Z,13.30
2022-12-31T05:26:14.343Z,13.40
2022-12-31T05:28:41.225Z,13.50
2022-12-31T05:31:08.075Z,13.50
2022-12-31T05:33:34.988Z,13.60
2022-12-31T05:36:01.832Z,13.70
2022-12-31T05:38:28.706Z,13.80
2022-12-31T05:41:03.394Z,13.80
2022-12-31T05:43:30.292Z,13.90
2022-12-31T05:45:57.264Z,14.00
2022-12-31T05:48:24.109Z,14.00
2022-12-31T05:50:50.903Z,14.10
2022-12-31T05:53:17.730Z,14.10
2022-12-31T05:55:47.126Z,14.10
2022-12-31T05:58:15.093Z,14.20
2022-12-31T06:00:42.313Z,14.20
2022-12-31T06:03:09.335Z,14.20
2022-12-31T06:05:39.886Z,14.20
2022-12-31T06:08:06.737Z,14.20
2022-12-31T06:10:33.535Z,14.20
2022-12-31T06:13:00.361Z,14.20
2022-12-31T06:15:27.182Z,14.20
2022-12-31T06:17:53.986Z,14.30
2022-12-31T06:20:20.749Z,14.30
2022-12-31T06:22:47.503Z,14.30
2022-12-31T06:25:14.333Z,14.40
2022-12-31T06:27:41.223Z,14.40
2022-12-31T06:30:08.918Z,14.50
2022-12-31T06:32:35.713Z,14.40
2022-12-31T06:35:02.913Z,14.40
2022-12-31T06:37:29.696Z,14.50
2022-12-31T06:39:56.532Z,14.50
2022-12-31T06:42:23.360Z,14.50
2022-12-31T06:44:50.175Z,14.50
2022-12-31T06:47:16.966Z,14.50
2022-12-31T06:49:43.771Z,14.50
2022-12-31T06:52:10.506Z,14.50
2022-12-31T06:54:37.520Z,14.40
2022-12-31T06:57:05.065Z,14.50
2022-12-31T06:59:32.053Z,14.40
2022-12-31T07:02:21.183Z,14.40
2022-12-31T07:04:51.792Z,14.50
2022-12-31T07:07:24.244Z,14.40
2022-12-31T07:10:06.275Z,14.40
2022-12-31T07:12:46.081Z,14.40
2022-12-31T07:15:40.139Z,14.30
2022-12-31T07:18:10.190Z,14.20
2022-12-31T07:20:37.224Z,14.10
2022-12-31T07:23:04.179Z,14.00
2022-12-31T07:25:31.441Z,14.00
2022-12-31T07:28:07.483Z,13.90
2022-12-31T07:30:44.514Z,13.90
2022-12-31T07:33:23.431Z,13.90
2022-12-31T07:36:11.407Z,13.90
2022-12-31T07:38:58.707Z,13.90
2022-12-31T07:41:44.267Z,14.00
2022-12-31T07:44:35.540Z,14.00
2022-12-31T07:47:03.777Z,14.00
2022-12-31T07:49:31.072Z,14.00
2022-12-31T07:51:58.259Z,14.10
2022-12-31T07:54:25.146Z,14.10
2022-12-31T07:56:51.931Z,14.10
2022-12-31T07:59:48.467Z,14.10
2022-12-31T08:02:32.810Z,14.10
2022-12-31T08:05:12.674Z,14.10
2022-12-31T08:07:52.134Z,14.10
2022-12-31T08:10:49.879Z,14.10
2022-12-31T08:13:16.749Z,14.00
2022-12-31T08:15:43.784Z,14.10
2022-12-31T08:18:10.682Z,14.10
2022-12-31T08:20:49.748Z,14.10
2022-12-31T08:23:20.142Z,14.10
2022-12-31T08:25:59.232Z,14.10
2022-12-31T08:28:52.144Z,14.10
2022-12-31T08:31:45.143Z,14.10
2022-12-31T08:34:30.284Z,14.00
2022-12-31T08:37:16.527Z,14.10
2022-12-31T08:40:19.937Z,14.10
2022-12-31T08:42:55.594Z,14.00
2022-12-31T08:45:25.022Z,14.00
2022-12-31T08:48:15.947Z,14.00
2022-12-31T08:50:42.958Z,14.00
2022-12-31T08:53:09.993Z,14.10
2022-12-31T08:55:37.110Z,14.00
2022-12-31T08:58:10.087Z,14.00
2022-12-31T09:00:36.907Z,14.00
2022-12-31T09:03:42.649Z,14.00
2022-12-31T09:06:18.572Z,14.10
2022-12-31T09:09:11.702Z,14.10
2022-12-31T09:12:06.293Z,14.00
2022-12-31T09:14:41.990Z,14.10
2022-12-31T09:17:24.004Z,14.20
2022-12-31T09:19:51.041Z,14.30
2022-12-31T09:22:18.006Z,14.40
2022-12-31T09:24:44.982Z,14.50
2022-12-31T09:27:23.881Z,14.70
2022-12-31T09:30:08.882Z,14.80
2022-12-31T09:32:48.412Z,15.00
2022-12-31T09:35:39.664Z,15.10
2022-12-31T09:38:27.598Z,15.10
2022-12-31T09:40:59.036Z,15.00
2022-12-31T09:44:00.893Z,14.90
2022-12-31T09:46:31.421Z,14.80
2022-12-31T09:49:16.537Z,14.80
2022-12-31T09:51:49.227Z,14.70
2022-12-31T09:54:19.303Z,14.60
2022-12-31T09:56:48.000Z,14.60
2022-12-31T09:59:34.585Z,14.40
2022-12-31T10:02:24.162Z,14.30
2022-12-31T10:05:28.545Z,14.20
2022-12-31T10:08:31.905Z,14.10
2022-12-31T10:11:18.217Z,14.10
2022-12-31T10:13:45.101Z,14.00
2022-12-31T10:16:30.859Z,14.00
2022-12-31T10:19:22.612Z,14.00
2022-12-31T10:22:17.995Z,14.00
2022-12-31T10:25:11.019Z,14.00
2022-12-31T10:27:48.074Z,14.00
2022-12-31T10:30:24.559Z,14.00
2022-12-31T10:33:18.234Z,14.00
2022-12-31T10:35:53.877Z,14.10
2022-12-31T10:38:30.103Z,14.10
2022-12-31T10:41:24.925Z,14.10
2022-12-31T10:44:19.926Z,14.10
2022-12-31T10:47:12.880Z,14.10
2022-12-31T10:49:50.564Z,14.00
2022-12-31T10:52:41.715Z,13.90
2022-12-31T10:55:31.592Z,13.90
2022-12-31T10:58:17.788Z,13.90
2022-12-31T11:00:54.830Z,13.90
2022-12-31T11:03:37.142Z,13.90
2022-12-31T11:06:36.172Z,13.90
2022-12-31T11:09:17.405Z,13.90
2022-12-31T11:12:02.926Z,13.90
2022-12-31T11:14:48.432Z,13.80
2022-12-31T11:17:37.333Z,13.80
2022-12-31T11:20:29.582Z,13.70
2022-12-31T11:23:04.668Z,13.70
2022-12-31T11:26:08.361Z,13.70
2022-12-31T11:28:54.106Z,13.60
2022-12-31T11:31:47.378Z,13.60
2022-12-31T11:34:20.206Z,13.60
2022-12-31T11:37:04.909Z,13.50
2022-12-31T11:39:40.907Z,13.50
2022-12-31T11:42:11.259Z,13.50
2022-12-31T11:44:45.316Z,13.40
2022-12-31T11:48:20.137Z,13.40
2022-12-31T11:50:39.672Z,13.40
2022-12-31T11:53:38.906Z,13.40
2022-12-31T11:56:15.920Z,13.30
2022-12-31T11:58:46.126Z,13.30
2022-12-31T12:01:17.314Z,13.30
2022-12-31T12:03:45.219Z,13.30
2022-12-31T12:06:13.472Z,13.20
2022-12-31T12:08:40.748Z,13.20
2022-12-31T12:11:27.383Z,13.20
2022-12-31T12:13:54.195Z,13.20
2022-12-31T12:16:21.713Z,13.20
2022-12-31T12:18:50.803Z,13.20
2022-12-31T12:21:18.529Z,13.30
2022-12-31T12:23:58.504Z,13.30
2022-12-31T12:26:34.773Z,13.30
2022-12-31T12:29:20.878Z,13.40
2022-12-31T12:32:15.067Z,13.40
2022-12-31T12:34:47.733Z,13.40
2022-12-31T12:37:37.054Z,13.40
2022-12-31T12:40:34.897Z,13.40
2022-12-31T12:43:02.198Z,13.40
2022-12-31T12:45:39.207Z,13.50
2022-12-31T12:48:10.330Z,13.50
2022-12-31T12:50:42.103Z,13.40
2022-12-31T12:53:14.868Z,13.40
2022-12-31T12:55:47.118Z,13.40
2022-12-31T12:58:19.431Z,13.30
2022-12-31T13:00:51.076Z,13.30
2022-12-31T13:03:30.383Z,13.30
2022-12-31T13:06:09.897Z,13.30
2022-12-31T13:09:03.361Z,13.30
2022-12-31T13:11:55.816Z,13.30
2022-12-31T13:14:41.788Z,13.30
2022-12-31T13:17:55.053Z,13.20
2022-12-31T13:20:41.376Z,13.20
2022-12-31T13:23:16.557Z,13.20
2022-12-31T13:25:58.398Z,13.20
2022-12-31T13:28:25.608Z,13.20
2022-12-31T13:31:06.466Z,13.20
2022-12-31T13:33:37.414Z,13.10
2022-12-31T13:36:07.542Z,13.10
2022-12-31T13:38:48.779Z,13.10
2022-12-31T13:41:19.214Z,13.00
2022-12-31T13:43:51.740Z,13.00
2022-12-31T13:46:37.680Z,13.00
2022-12-31T13:49:36.742Z,13.00
2022-12-31T13:52:06.319Z,12.90
2022-12-31T13:54:42.232Z,12.90
2022-12-31T13:57:36.016Z,12.90
2022-12-31T14:00:05.753Z,12.90
2022-12-31T14:02:44.329Z,12.80
2022-12-31T14:05:47.767Z,12.80
2022-12-31T14:08:15.243Z,12.80
2022-12-31T14:10:52.349Z,12.80
2022-12-31T14:13:37.294Z,12.70
2022-12-31T14:16:40.359Z,12.70
2022-12-31T14:19:16.137Z,12.70
2022-12-31T14:22:01.667Z,12.60
2022-12-31T14:24:51.026Z,12.60
2022-12-31T14:27:38.763Z,12.60
2022-12-31T14:30:15.802Z,12.60
2022-12-31T14:33:00.782Z,12.60
2022-12-31T14:35:46.009Z,12.60
2022-12-31T14:38:40.416Z,12.50
2022-12-31T14:41:12.710Z,12.50
2022-12-31T14:43:58.259Z,12.50
2022-12-31T14:46:54.380Z,12.50
2022-12-31T14:49:52.398Z,12.50
2022-12-31T14:52:29.180Z,12.50
2022-12-31T14:55:02.112Z,12.50
2022-12-31T14:58:01.503Z,12.50
2022-12-31T15:00:38.118Z,12.50
2022-12-31T15:03:32.290Z,12.50
2022-12-31T15:06:09.840Z,12.50
2022-12-31T15:08:42.633Z,12.40
2022-12-31T15:11:49.275Z,12.40
2022-12-31T15:14:43.248Z,12.40
2022-12-31T15:17:25.354Z,12.30
2022-12-31T15:20:13.258Z,12.40
2022-12-31T15:22:44.072Z,12.30
2022-12-31T15:25:19.857Z,12.40
2022-12-31T15:27:46.784Z,12.40
2022-12-31T15:30:28.873Z,12.40
2022-12-31T15:32:59.465Z,12.40
2022-12-31T15:35:30.909Z,12.40
2022-12-31T15:38:07.457Z,12.40
2022-12-31T15:40:48.782Z,12.40
2022-12-31T15:43:24.280Z,12.40
2022-12-31T15:45:54.736Z,12.40
2022-12-31T15:48:27.359Z,12.40
2022-12-31T15:50:55.946Z,12.40
2022-12-31T15:53:41.028Z,12.40
2022-12-31T15:56:08.294Z,12.40
2022-12-31T15:58:36.167Z,12.40
2022-12-31T16:01:32.710Z,12.40
2022-12-31T16:04:20.361Z,12.30
2022-12-31T16:06:50.633Z,12.40
2022-12-31T16:09:21.167Z,12.30
2022-12-31T16:11:47.943Z,12.30
2022-12-31T16:14:35.771Z,12.30
2022-12-31T16:17:02.597Z,12.30
2022-12-31T16:19:42.962Z,12.30
2022-12-31T16:22:17.708Z,12.30
2022-12-31T16:25:19.618Z,12.30
2022-12-31T16:27:31.396Z,12.30
2022-12-31T16:30:04.733Z,12.20
2022-12-31T16:32:35.993Z,12.20
2022-12-31T16:35:05.911Z,12.10
2022-12-31T16:37:36.957Z,12.10
2022-12-31T16:40:18.409Z,12.10
2022-12-31T16:42:46.302Z,12.10
2022-12-31T16:45:28.902Z,12.10
2022-12-31T16:47:55.705Z,12.20
2022-12-31T16:50:23.140Z,12.20
2022-12-31T16:52:51.121Z,12.20
2022-12-31T16:55:23.566Z,12.20
2022-12-31T16:57:55.822Z,12.30
2022-12-31T17:00:24.003Z,12.30
2022-12-31T17:03:14.140Z,12.30
2022-12-31T17:05:59.395Z,12.30
2022-12-31T17:08:58.646Z,12.30
2022-12-31T17:11:30.265Z,12.30
2022-12-31T17:14:06.583Z,12.40
2022-12-31T17:16:34.497Z,12.40
2022-12-31T17:19:01.415Z,12.40
2022-12-31T17:21:29.583Z,12.40
2022-12-31T17:24:04.161Z,12.50
2022-12-31T17:26:32.533Z,12.50
2022-12-31T17:28:59.684Z,12.50
2022-12-31T17:31:31.066Z,12.60
2022-12-31T17:34:13.116Z,12.60
2022-12-31T17:37:18.183Z,12.60
2022-12-31T17:39:49.000Z,12.70
2022-12-31T17:42:23.552Z,12.70
2022-12-31T17:44:50.399Z,12.70
2022-12-31T17:47:17.178Z,12.80
2022-12-31T17:49:45.089Z,12.80
2022-12-31T17:52:15.293Z,12.80
2022-12-31T17:54:42.395Z,12.90
2022-12-31T17:57:21.801Z,12.90
2022-12-31T17:59:48.590Z,13.00
2022-12-31T18:02:15.421Z,13.00
2022-12-31T18:04:42.330Z,13.00
2022-12-31T18:07:09.282Z,13.00
2022-12-31T18:09:36.076Z,13.00
2022-12-31T18:12:03.538Z,13.10
2022-12-31T18:14:30.352Z,13.10
2022-12-31T18:16:57.159Z,13.10
2022-12-31T18:19:54.160Z,13.10
2022-12-31T18:22:15.855Z,13.10
2022-12-31T18:24:43.462Z,13.00
2022-12-31T18:27:17.540Z,13.10
2022-12-31T18:29:44.546Z,13.10
2022-12-31T18:32:26.228Z,13.00
2022-12-31T18:34:53.122Z,13.10
2022-12-31T18:37:22.259Z,13.10
2022-12-31T18:39:49.456Z,13.10
2022-12-31T18:42:17.444Z,13.10
2022-12-31T18:44:44.500Z,13.00
2022-12-31T18:47:15.567Z,13.10
2022-12-31T18:49:42.974Z,13.00
2022-12-31T18:52:13.658Z,13.00
2022-12-31T18:54:40.448Z,13.10
2022-12-31T18:57:07.240Z,13.10
2022-12-31T18:59:34.191Z,13.10
2022-12-31T19:02:01.046Z,13.10
2022-12-31T19:04:28.610Z,13.10
2022-12-31T19:06:55.987Z,13.10
2022-12-31T19:09:44.585Z,13.10
2022-12-31T19:12:13.545Z,13.10
2022-12-31T19:14:40.527Z,13.10
2022-12-31T19:19:34.644Z,13.30
2022-12-31T19:22:01.729Z,13.30
2022-12-31T19:24:28.661Z,13.40
2022-12-31T19:26:55.412Z,13.40
2022-12-31T19:29:26.824Z,13.50
2022-12-31T19:31:53.889Z,13.50
2022-12-31T19:34:20.778Z,13.60
2022-12-31T19:36:47.574Z,13.60
2022-12-31T19:39:19.516Z,13.70
2022-12-31T19:41:47.523Z,13.70
2022-12-31T19:44:16.922Z,13.70
2022-12-31T19:46:44.267Z,13.70
2022-12-31T19:49:12.130Z,13.70
2022-12-31T19:51:39.018Z,13.80
2022-12-31T19:54:06.012Z,13.80
2022-12-31T19:56:32.771Z,13.80
2022-12-31T19:59:07.014Z,13.80
2022-12-31T20:01:33.958Z,13.80
2022-12-31T20:04:01.031Z,13.90
2022-12-31T20:06:27.835Z,13.90
2022-12-31T20:08:54.662Z,13.90
2022-12-31T20:11:22.637Z,13.90
2022-12-31T20:13:49.650Z,13.90
2022-12-31T20:16:17.617Z,13.90
2022-12-31T20:18:45.244Z,13.90
2022-12-31T20:21:14.839Z,13.90
2022-12-31T20:23:41.675Z,13.90
2022-12-31T20:26:08.498Z,13.90
2022-12-31T20:28:36.472Z,13.80
2022-12-31T20:31:07.820Z,13.90
2022-12-31T20:33:34.897Z,13.80
2022-12-31T20:36:03.270Z,13.90
2022-12-31T20:38:30.175Z,13.90
2022-12-31T20:41:05.471Z,13.90
2022-12-31T20:43:32.981Z,13.90
2022-12-31T20:46:00.039Z,13.80
2022-12-31T20:48:26.925Z,13.80
2022-12-31T20:50:57.012Z,13.80
2022-12-31T20:53:23.938Z,13.80
2022-12-31T20:55:50.781Z,13.70
2022-12-31T20:58:17.677Z,13.70
2022-12-31T21:00:51.401Z,13.60
2022-12-31T21:03:53.523Z,13.70
2022-12-31T21:06:05.534Z,13.60
2022-12-31T21:08:35.037Z,13.60
2022-12-31T21:11:02.580Z,13.50
2022-12-31T21:13:31.075Z,13.50
2022-12-31T21:15:58.006Z,13.50
2022-12-31T21:18:24.836Z,13.40
2022-12-31T21:20:52.440Z,13.50
2022-12-31T21:23:19.774Z,13.40
2022-12-31T21:25:48.852Z,13.40
2022-12-31T21:28:15.633Z,13.40
2022-12-31T21:30:43.173Z,13.40
2022-12-31T21:33:10.105Z,13.40
2022-12-31T21:35:53.167Z,13.40
2022-12-31T21:38:20.659Z,13.40
2022-12-31T21:40:47.567Z,13.30
2022-12-31T21:43:14.714Z,13.30
2022-12-31T21:45:41.741Z,13.30
2022-12-31T21:48:23.229Z,13.30
2022-12-31T21:50:54.363Z,13.30
2022-12-31T21:53:26.191Z,13.30
2022-12-31T21:56:09.857Z,13.30
2022-12-31T21:58:41.266Z,13.30
2022-12-31T22:01:28.306Z,13.30
2022-12-31T22:03:55.219Z,13.30
2022-12-31T22:06:22.399Z,13.30
2022-12-31T22:08:51.586Z,13.30
2022-12-31T22:11:18.863Z,13.30
2022-12-31T22:13:45.983Z,13.30
2022-12-31T22:16:17.009Z,13.30
2022-12-31T22:18:44.235Z,13.20
2022-12-31T22:21:18.126Z,13.20
2022-12-31T22:23:51.716Z,13.20
2022-12-31T22:26:19.998Z,13.20
2022-12-31T22:28:46.986Z,13.10
2022-12-31T22:31:18.532Z,13.10
2022-12-31T22:33:45.514Z,13.20
2022-12-31T22:36:14.540Z,13.10
2022-12-31T22:38:41.390Z,13.10
2022-12-31T22:41:09.157Z,13.10
2022-12-31T22:43:37.448Z,13.10
2022-12-31T22:46:11.289Z,13.10
2022-12-31T22:48:38.397Z,13.10
2022-12-31T22:51:05.852Z,13.00
2022-12-31T22:53:32.734Z,13.00
2022-12-31T22:55:59.725Z,13.00
2022-12-31T22:58:26.739Z,12.90
2022-12-31T23:00:53.609Z,12.90
2022-12-31T23:03:20.532Z,12.90
2022-12-31T23:05:50.213Z,12.90
2022-12-31T23:08:22.757Z,12.90
2022-12-31T23:11:00.292Z,12.90
2022-12-31T23:13:59.378Z,12.90
2022-12-31T23:16:46.066Z,12.90
2022-12-31T23:19:31.478Z,12.90
2022-12-31T23:22:16.805Z,12.90
2022-12-31T23:24:43.722Z,12.90
2022-12-31T23:27:10.727Z,12.90
2022-12-31T23:29:45.515Z,12.90
2022-12-31T23:32:13.483Z,12.90
2022-12-31T23:34:40.220Z,12.90
2022-12-31T23:37:06.988Z,12.80
2022-12-31T23:39:33.839Z,12.80
2022-12-31T23:42:00.779Z,12.90
2022-12-31T23:44:27.965Z,12.80
2022-12-31T23:46:54.953Z,12.80
2022-12-31T23:49:22.175Z,12.90
2022-12-31T23:51:48.916Z,12.90
2022-12-31T23:54:15.938Z,12.80
2022-12-31T23:56:42.797Z,12.80
2022-12-31T23:59:09.890Z,12.90
